createdAt,value
2019-02-26T00:00:37.147Z,14.93
2019-02-26T00:03:05.622Z,15.17
2019-02-26T00:05:34.032Z,17.17
2019-02-26T00:08:02.753Z,15.33
2019-02-26T00:10:32.318Z,15.67
2019-02-26T00:13:01.615Z,15.43
2019-02-26T00:15:33.399Z,15.27
2019-02-26T00:18:00.371Z,15.07
2019-02-26T00:20:31.289Z,16.47
2019-02-26T00:22:59.781Z,17.13
2019-02-26T00:25:29.299Z,16.50
2019-02-26T00:27:58.676Z,15.80
2019-02-26T00:30:27.143Z,16.53
2019-02-26T00:32:57.715Z,16.20
2019-02-26T00:35:27.464Z,18.00
2019-02-26T00:37:55.932Z,16.83
2019-02-26T00:40:24.373Z,17.90
2019-02-26T00:42:55.022Z,18.47
2019-02-26T00:45:27.011Z,17.13
2019-02-26T00:47:53.040Z,18.27
2019-02-26T00:50:21.395Z,19.07
2019-02-26T00:52:52.139Z,17.90
2019-02-26T00:55:23.178Z,20.27
2019-02-26T00:57:50.784Z,18.23
2019-02-26T01:00:19.774Z,19.63
2019-02-26T01:02:48.295Z,20.33
2019-02-26T01:05:16.851Z,20.80
2019-02-26T01:07:47.369Z,20.00
2019-02-26T01:10:16.381Z,19.83
2019-02-26T01:12:45.937Z,19.30
2019-02-26T01:15:14.392Z,20.60
2019-02-26T01:17:42.830Z,18.77
2019-02-26T01:20:31.995Z,18.50
2019-02-26T01:23:00.548Z,17.90
2019-02-26T01:25:29.009Z,19.10
2019-02-26T01:27:58.516Z,18.63
2019-02-26T01:30:29.414Z,18.00
2019-02-26T01:33:00.012Z,20.00
2019-02-26T01:35:28.986Z,20.13
2019-02-26T01:38:00.457Z,19.80
2019-02-26T01:40:28.549Z,18.47
2019-02-26T01:42:57.944Z,19.47
2019-02-26T01:45:29.839Z,18.30
2019-02-26T01:47:57.447Z,19.13
2019-02-26T01:50:25.819Z,20.87
2019-02-26T01:52:56.242Z,21.43
2019-02-26T01:55:25.398Z,18.87
2019-02-26T01:57:58.511Z,19.53
2019-02-26T02:00:25.948Z,20.27
2019-02-26T02:02:54.411Z,20.40
2019-02-26T02:05:23.779Z,19.27
2019-02-26T02:07:53.629Z,21.40
2019-02-26T02:10:23.536Z,19.87
2019-02-26T02:12:55.243Z,19.97
2019-02-26T02:15:23.685Z,20.83
2019-02-26T02:17:52.551Z,19.60
2019-02-26T02:20:21.611Z,20.80
2019-02-26T02:22:50.239Z,20.37
2019-02-26T02:25:18.714Z,19.47
2019-02-26T02:27:49.678Z,19.60
2019-02-26T02:30:22.719Z,19.63
2019-02-26T02:32:51.249Z,19.63
2019-02-26T02:35:19.197Z,17.93
2019-02-26T02:37:48.169Z,19.37
2019-02-26T02:40:16.646Z,18.70
2019-02-26T02:42:48.483Z,20.00
2019-02-26T02:45:19.658Z,19.73
2019-02-26T02:47:45.478Z,18.50
2019-02-26T02:50:15.208Z,20.93
2019-02-26T02:52:44.156Z,19.33
2019-02-26T02:55:15.583Z,18.47
2019-02-26T02:57:42.835Z,18.30
2019-02-26T03:00:11.609Z,19.30
2019-02-26T03:02:42.875Z,20.27
2019-02-26T03:05:32.057Z,19.57
2019-02-26T03:07:59.739Z,19.90
2019-02-26T03:10:30.812Z,20.13
2019-02-26T03:13:00.358Z,18.87
2019-02-26T03:15:30.038Z,19.40
2019-02-26T03:17:58.700Z,17.07
2019-02-26T03:20:28.750Z,16.77
2019-02-26T03:23:09.343Z,16.37
2019-02-26T03:25:37.264Z,17.00
2019-02-26T03:28:05.744Z,17.47
2019-02-26T03:30:40.156Z,16.30
2019-02-26T03:33:04.911Z,17.13
2019-02-26T03:35:33.556Z,16.10
2019-02-26T03:38:03.587Z,17.60
2019-02-26T03:40:32.963Z,15.23
2019-02-26T03:43:04.550Z,15.40
2019-02-26T03:45:32.650Z,15.13
2019-02-26T03:48:01.128Z,15.33
2019-02-26T03:50:29.641Z,15.43
2019-02-26T03:52:58.023Z,15.13
2019-02-26T03:55:26.562Z,15.93
2019-02-26T03:57:58.544Z,16.60
2019-02-26T04:00:25.185Z,15.70
2019-02-26T04:02:53.648Z,16.93
2019-02-26T04:05:22.227Z,16.67
2019-02-26T04:07:53.292Z,18.67
2019-02-26T04:10:21.039Z,15.57
2019-02-26T04:12:52.306Z,16.30
2019-02-26T04:15:19.824Z,17.33
2019-02-26T04:17:48.355Z,18.53
2019-02-26T04:20:17.071Z,17.50
2019-02-26T04:22:47.050Z,18.17
2019-02-26T04:25:17.390Z,19.10
2019-02-26T04:27:56.373Z,20.90
2019-02-26T04:30:36.566Z,19.50
2019-02-26T04:33:19.016Z,17.63
2019-02-26T04:35:55.500Z,19.73
2019-02-26T04:38:37.204Z,20.23
2019-02-26T04:41:24.294Z,19.63
2019-02-26T04:44:11.965Z,18.47
2019-02-26T04:46:43.132Z,17.90
2019-02-26T04:49:11.663Z,18.03
2019-02-26T04:51:45.048Z,17.60
2019-02-26T04:54:17.609Z,18.53
2019-02-26T04:56:45.099Z,18.17
2019-02-26T04:59:16.491Z,19.07
2019-02-26T05:01:47.234Z,20.97
2019-02-26T05:04:15.904Z,19.13
2019-02-26T05:06:44.409Z,18.43
2019-02-26T05:09:12.926Z,19.83
2019-02-26T05:11:41.351Z,18.50
2019-02-26T05:14:11.744Z,19.30
2019-02-26T05:16:40.928Z,19.90
2019-02-26T05:19:10.605Z,18.80
2019-02-26T05:21:39.703Z,18.13
2019-02-26T05:24:08.263Z,20.20
2019-02-26T05:26:36.793Z,20.07
2019-02-26T05:29:06.749Z,19.23
2019-02-26T05:31:37.682Z,19.37
2019-02-26T05:34:05.507Z,19.27
2019-02-26T05:36:36.751Z,20.40
2019-02-26T05:39:05.658Z,20.13
2019-02-26T05:41:34.204Z,19.40
2019-02-26T05:44:04.766Z,19.60
2019-02-26T05:46:33.045Z,19.90
2019-02-26T05:49:03.544Z,19.43
2019-02-26T05:51:32.766Z,19.13
2019-02-26T05:54:07.602Z,22.07
2019-02-26T05:56:34.053Z,19.67
2019-02-26T05:59:06.813Z,20.67
2019-02-26T06:01:33.363Z,20.77
2019-02-26T06:04:04.865Z,21.10
2019-02-26T06:06:32.226Z,19.63
2019-02-26T06:09:02.897Z,18.67
2019-02-26T06:11:34.001Z,19.73
2019-02-26T06:14:06.691Z,20.83
2019-02-26T06:16:56.809Z,21.50
2019-02-26T06:19:40.213Z,20.13
2019-02-26T06:22:11.597Z,18.80
2019-02-26T06:24:40.045Z,19.13
2019-02-26T06:27:13.114Z,21.40
2019-02-26T06:29:39.003Z,22.90
2019-02-26T06:32:09.617Z,22.40
2019-02-26T06:34:38.699Z,21.80
2019-02-26T06:37:16.484Z,22.97
2019-02-26T06:39:44.513Z,22.47
2019-02-26T06:42:14.514Z,23.57
2019-02-26T06:44:43.744Z,24.60
2019-02-26T06:47:13.289Z,23.50
2019-02-26T06:49:43.286Z,25.63
2019-02-26T06:52:13.098Z,25.17
2019-02-26T06:54:42.097Z,21.13
2019-02-26T06:57:10.586Z,23.40
2019-02-26T06:59:39.057Z,22.90
2019-02-26T07:02:08.845Z,23.57
2019-02-26T07:04:37.730Z,21.80
2019-02-26T07:07:07.414Z,23.07
2019-02-26T07:09:36.938Z,22.63
2019-02-26T07:12:06.425Z,23.10
2019-02-26T07:14:34.889Z,22.17
2019-02-26T07:17:03.354Z,20.20
2019-02-26T07:19:33.233Z,22.77
2019-02-26T07:22:02.052Z,23.77
2019-02-26T07:24:30.565Z,21.13
2019-02-26T07:26:59.014Z,21.27
2019-02-26T07:29:30.757Z,21.10
2019-02-26T07:31:58.879Z,22.63
2019-02-26T07:34:27.574Z,21.90
2019-02-26T07:36:56.152Z,22.53
2019-02-26T07:39:24.609Z,22.43
2019-02-26T07:41:54.431Z,22.77
2019-02-26T07:44:24.109Z,22.93
2019-02-26T07:46:53.107Z,22.07
2019-02-26T07:49:21.914Z,20.90
2019-02-26T07:51:50.409Z,21.20
2019-02-26T07:54:18.911Z,20.40
2019-02-26T07:56:47.285Z,20.40
2019-02-26T07:59:17.136Z,19.47
2019-02-26T08:01:47.200Z,19.00
2019-02-26T08:04:16.549Z,17.47
2019-02-26T08:06:45.967Z,17.87
2019-02-26T08:09:16.501Z,20.63
2019-02-26T08:11:48.511Z,21.40
2019-02-26T08:14:16.185Z,20.20
2019-02-26T08:16:49.215Z,18.70
2019-02-26T08:19:15.189Z,18.03
2019-02-26T08:21:45.450Z,17.67
2019-02-26T08:24:14.855Z,16.10
2019-02-26T08:26:45.218Z,16.47
2019-02-26T08:29:14.137Z,16.10
2019-02-26T08:31:44.783Z,15.70
2019-02-26T08:34:15.587Z,15.90
2019-02-26T08:36:46.213Z,15.10
2019-02-26T08:39:15.631Z,15.10
2019-02-26T08:42:00.353Z,15.67
2019-02-26T08:44:28.820Z,14.70
2019-02-26T08:46:57.294Z,15.27
2019-02-26T08:49:25.691Z,14.77
2019-02-26T08:51:54.156Z,15.23
2019-02-26T08:54:24.306Z,14.87
2019-02-26T08:56:52.652Z,14.10
2019-02-26T08:59:21.151Z,16.47
2019-02-26T09:01:49.605Z,15.07
2019-02-26T09:04:19.694Z,16.20
2019-02-26T09:06:50.559Z,15.03
2019-02-26T09:09:20.512Z,15.67
2019-02-26T09:11:50.379Z,15.70
2019-02-26T09:14:19.206Z,15.90
2019-02-26T09:16:50.140Z,14.60
2019-02-26T09:19:18.078Z,16.37
2019-02-26T09:21:47.798Z,14.97
2019-02-26T09:24:16.851Z,16.27
2019-02-26T09:26:45.398Z,15.87
2019-02-26T09:29:15.533Z,15.57
2019-02-26T09:31:44.095Z,15.63
2019-02-26T09:34:12.607Z,15.37
2019-02-26T09:36:41.097Z,15.87
2019-02-26T09:39:10.669Z,15.03
2019-02-26T09:41:40.314Z,15.43
2019-02-26T09:44:11.687Z,15.37
2019-02-26T09:46:41.945Z,15.27
2019-02-26T09:49:12.594Z,15.20
2019-02-26T09:51:40.724Z,14.67
2019-02-26T09:54:10.934Z,14.57
2019-02-26T09:56:39.542Z,15.13
2019-02-26T09:59:09.807Z,14.90
2019-02-26T10:01:40.201Z,14.17
2019-02-26T10:04:08.484Z,14.67
2019-02-26T10:06:37.941Z,14.40
2019-02-26T10:09:08.961Z,13.80
2019-02-26T10:11:39.340Z,14.33
2019-02-26T10:14:08.317Z,13.77
2019-02-26T10:16:37.783Z,12.97
2019-02-26T10:19:07.855Z,12.80
2019-02-26T10:21:37.543Z,12.17
2019-02-26T10:24:06.582Z,11.80
2019-02-26T10:26:36.609Z,12.67
2019-02-26T10:29:07.145Z,11.83
2019-02-26T10:31:35.456Z,11.77
2019-02-26T10:34:07.927Z,11.60
2019-02-26T10:36:36.384Z,10.27
2019-02-26T10:39:07.351Z,10.47
2019-02-26T10:41:36.852Z,12.03
2019-02-26T10:44:05.961Z,11.70
2019-02-26T10:46:35.017Z,11.00
2019-02-26T10:49:04.646Z,11.27
2019-02-26T10:51:33.158Z,10.67
2019-02-26T10:54:02.801Z,10.10
2019-02-26T10:56:36.801Z,10.17
2019-02-26T10:59:05.857Z,10.20
2019-02-26T11:01:33.662Z,10.80
2019-02-26T11:04:04.474Z,12.33
2019-02-26T11:06:33.740Z,12.80
2019-02-26T11:09:02.973Z,12.50
2019-02-26T11:11:32.900Z,12.97
2019-02-26T11:14:01.652Z,14.03
2019-02-26T11:16:31.002Z,15.00
2019-02-26T11:19:02.375Z,16.30
2019-02-26T11:21:30.636Z,16.83
2019-02-26T11:24:00.832Z,15.97
2019-02-26T11:26:30.175Z,16.50
2019-02-26T11:28:59.561Z,15.33
2019-02-26T11:31:28.029Z,14.70
2019-02-26T11:33:59.518Z,17.70
2019-02-26T11:36:28.097Z,15.30
2019-02-26T11:38:59.017Z,16.53
2019-02-26T11:41:28.743Z,16.23
2019-02-26T11:43:57.215Z,16.93
2019-02-26T11:46:27.304Z,15.60
2019-02-26T11:48:57.457Z,16.87
2019-02-26T11:51:26.105Z,16.27
2019-02-26T11:53:54.484Z,16.27
2019-02-26T11:56:25.675Z,16.03
2019-02-26T11:58:53.513Z,16.00
2019-02-26T12:01:22.058Z,16.07
2019-02-26T12:03:50.558Z,16.17
2019-02-26T12:06:19.110Z,15.63
2019-02-26T12:08:49.925Z,15.47
2019-02-26T12:11:20.445Z,13.77
2019-02-26T12:13:50.071Z,13.87
2019-02-26T12:16:18.197Z,13.90
2019-02-26T12:18:47.054Z,12.70
2019-02-26T12:21:15.665Z,11.67
2019-02-26T12:23:46.646Z,12.40
2019-02-26T12:26:16.326Z,12.00
2019-02-26T12:28:44.563Z,12.53
2019-02-26T12:31:13.050Z,11.27
2019-02-26T12:33:41.561Z,12.80
2019-02-26T12:36:10.409Z,12.87
2019-02-26T12:38:38.984Z,12.10
2019-02-26T12:41:08.863Z,12.43
2019-02-26T12:43:42.670Z,11.50
2019-02-26T12:46:08.616Z,11.03
2019-02-26T12:48:40.484Z,12.50
2019-02-26T12:51:08.002Z,9.60
2019-02-26T12:53:47.599Z,9.97
2019-02-26T12:56:15.862Z,10.37
2019-02-26T12:58:45.228Z,11.03
2019-02-26T13:01:14.542Z,10.90
2019-02-26T13:03:46.232Z,9.27
2019-02-26T13:06:17.952Z,9.77
2019-02-26T13:08:47.047Z,9.33
2019-02-26T13:11:14.057Z,10.07
2019-02-26T13:13:45.221Z,9.60
2019-02-26T13:16:13.793Z,9.87
2019-02-26T13:18:42.258Z,9.67
2019-02-26T13:21:13.351Z,9.20
2019-02-26T13:23:40.836Z,8.00
2019-02-26T13:26:10.869Z,8.37
2019-02-26T13:28:41.915Z,6.90
2019-02-26T13:31:13.767Z,7.23
2019-02-26T13:33:42.141Z,6.43
2019-02-26T13:36:10.811Z,7.57
2019-02-26T13:38:44.640Z,7.73
2019-02-26T13:41:28.817Z,8.37
2019-02-26T13:43:39.702Z,8.27
2019-02-26T13:46:08.201Z,6.97
2019-02-26T13:48:37.024Z,6.73
2019-02-26T13:51:06.099Z,7.83
2019-02-26T13:53:34.614Z,8.37
2019-02-26T13:56:03.098Z,7.40
2019-02-26T13:58:32.321Z,7.37
2019-02-26T14:01:02.098Z,7.73
2019-02-26T14:03:30.873Z,7.97
2019-02-26T14:05:59.725Z,9.07
2019-02-26T14:08:28.502Z,8.97
2019-02-26T14:10:56.970Z,9.63
2019-02-26T14:13:25.428Z,9.77
2019-02-26T14:15:53.940Z,8.87
2019-02-26T14:18:22.439Z,9.63
2019-02-26T14:20:51.153Z,9.83
2019-02-26T14:23:19.898Z,10.30
2019-02-26T14:25:48.663Z,9.60
2019-02-26T14:28:17.382Z,9.93
2019-02-26T14:30:45.874Z,10.17
2019-02-26T14:33:14.363Z,10.33
2019-02-26T14:35:42.850Z,10.80
2019-02-26T14:38:12.306Z,10.07
2019-02-26T14:40:40.802Z,10.37
2019-02-26T14:43:09.366Z,11.17
2019-02-26T14:45:37.856Z,11.60
2019-02-26T14:48:06.273Z,11.20
2019-02-26T14:50:34.779Z,10.83
2019-02-26T14:53:03.297Z,10.77
2019-02-26T14:55:31.776Z,11.07
2019-02-26T14:58:00.264Z,10.37
2019-02-26T15:00:28.924Z,10.60
2019-02-26T15:02:57.432Z,10.23
2019-02-26T15:05:25.967Z,9.97
2019-02-26T15:07:54.484Z,10.20
2019-02-26T15:10:22.965Z,10.40
2019-02-26T15:12:51.432Z,10.07
2019-02-26T15:15:20.014Z,10.20
2019-02-26T15:17:48.569Z,11.00
2019-02-26T15:20:17.086Z,11.13
2019-02-26T15:22:45.557Z,11.20
2019-02-26T15:25:16.272Z,11.10
2019-02-26T15:27:44.739Z,11.10
2019-02-26T15:30:13.641Z,10.37
2019-02-26T15:32:42.150Z,9.47
2019-02-26T15:35:10.686Z,10.80
2019-02-26T15:37:39.652Z,10.20
2019-02-26T15:40:08.660Z,9.57
2019-02-26T15:42:37.193Z,10.63
2019-02-26T15:45:06.903Z,10.77
2019-02-26T15:47:35.408Z,10.17
2019-02-26T15:50:06.717Z,9.93
2019-02-26T15:52:34.930Z,10.40
2019-02-26T16:14:34.519Z,13.83
2019-02-26T16:17:03.102Z,13.97
2019-02-26T16:19:31.636Z,13.20
2019-02-26T16:22:00.223Z,13.70
2019-02-26T16:24:28.915Z,13.53
2019-02-26T16:26:57.424Z,13.10
2019-02-26T16:29:26.165Z,13.10
2019-02-26T16:31:54.768Z,12.40
2019-02-26T16:34:23.410Z,12.27
2019-02-26T16:36:52.097Z,11.87
2019-02-26T16:39:22.615Z,12.00
2019-02-26T16:41:50.803Z,12.63
2019-02-26T16:44:19.386Z,12.00
2019-02-26T16:46:47.905Z,12.30
2019-02-26T16:49:16.402Z,11.90
2019-02-26T16:51:44.952Z,12.20
2019-02-26T16:54:13.445Z,11.07
2019-02-26T16:56:41.925Z,11.27
2019-02-26T16:59:12.436Z,11.50
2019-02-26T17:01:41.485Z,13.20
2019-02-26T17:04:10.104Z,12.57
2019-02-26T17:06:38.696Z,11.47
2019-02-26T17:09:07.536Z,12.60
2019-02-26T17:11:36.012Z,11.40
2019-02-26T17:14:04.538Z,11.40
2019-02-26T17:16:33.012Z,10.80
2019-02-26T17:19:01.479Z,11.20
2019-02-26T17:21:30.764Z,11.93
2019-02-26T17:23:59.776Z,13.90
2019-02-26T17:26:28.196Z,14.27
2019-02-26T17:28:56.744Z,13.27
2019-02-26T17:31:25.197Z,13.60
2019-02-26T17:33:53.658Z,12.50
2019-02-26T17:36:22.101Z,11.47
2019-02-26T17:38:52.260Z,11.60
2019-02-26T17:41:20.760Z,11.63
2019-02-26T17:43:49.229Z,12.00
2019-02-26T17:46:17.680Z,11.00
2019-02-26T17:48:46.146Z,10.60
2019-02-26T17:51:18.772Z,12.17
2019-02-26T17:53:44.899Z,11.63
2019-02-26T17:56:13.392Z,12.63
2019-02-26T17:58:43.857Z,11.80
2019-02-26T18:01:11.989Z,11.40
2019-02-26T18:03:44.728Z,11.37
2019-02-26T18:06:10.762Z,11.70
2019-02-26T18:08:39.320Z,11.80
2019-02-26T18:11:07.714Z,11.27
2019-02-26T18:13:36.108Z,11.27
2019-02-26T18:16:09.134Z,13.78
2019-02-26T18:18:34.937Z,12.67
2019-02-26T18:21:05.778Z,11.97
2019-02-26T18:23:37.554Z,14.50
2019-02-26T18:26:03.635Z,12.30
2019-02-26T18:28:32.114Z,11.40
2019-02-26T18:31:00.774Z,12.03
2019-02-26T18:33:29.344Z,13.33
2019-02-26T18:35:59.285Z,14.27
2019-02-26T18:38:27.927Z,13.77
2019-02-26T18:41:00.524Z,13.13
2019-02-26T18:43:27.660Z,12.10
2019-02-26T18:45:56.152Z,14.83
2019-02-26T18:48:24.543Z,13.33
2019-02-26T18:50:55.152Z,11.60
2019-02-26T18:53:23.677Z,12.07
2019-02-26T18:55:52.133Z,11.60
2019-02-26T18:58:20.587Z,12.53
2019-02-26T19:00:52.631Z,12.57
2019-02-26T19:03:22.225Z,12.87
2019-02-26T19:05:53.956Z,13.93
2019-02-26T19:08:23.737Z,14.87
2019-02-26T19:10:53.323Z,14.50
2019-02-26T19:13:22.401Z,13.67
2019-02-26T19:15:50.983Z,13.33
2019-02-26T19:18:19.544Z,14.50
2019-02-26T19:20:49.107Z,12.53
2019-02-26T19:23:18.213Z,12.77
2019-02-26T19:25:46.780Z,13.50
2019-02-26T19:28:15.246Z,13.23
2019-02-26T19:30:43.775Z,12.73
2019-02-26T19:33:12.193Z,13.73
2019-02-26T19:35:40.703Z,11.03
2019-02-26T19:38:09.180Z,12.30
2019-02-26T19:40:38.983Z,13.43
2019-02-26T19:43:13.522Z,12.60
2019-02-26T19:45:44.773Z,11.97
2019-02-26T19:48:13.418Z,13.57
2019-02-26T19:50:45.625Z,13.97
2019-02-26T19:53:12.107Z,14.23
2019-02-26T19:55:40.585Z,13.53
2019-02-26T19:58:09.072Z,14.37
2019-02-26T20:00:37.606Z,15.87
2019-02-26T20:03:06.307Z,16.40
2019-02-26T20:05:34.958Z,15.83
2019-02-26T20:08:10.576Z,15.97
2019-02-26T20:10:40.284Z,13.50
2019-02-26T20:13:12.502Z,15.20
2019-02-26T20:15:39.025Z,13.43
2019-02-26T20:18:20.230Z,13.70
2019-02-26T20:20:41.055Z,14.20
2019-02-26T20:23:09.725Z,13.40
2019-02-26T20:25:42.495Z,13.33
2019-02-26T20:28:09.718Z,15.17
2019-02-26T20:30:38.318Z,13.80
2019-02-26T20:33:06.828Z,14.30
2019-02-26T20:35:35.516Z,15.00
2019-02-26T20:38:04.097Z,14.57
2019-02-26T20:40:32.600Z,15.43
2019-02-26T20:43:01.838Z,15.87
2019-02-26T20:45:31.303Z,15.57
2019-02-26T20:48:03.831Z,16.83
2019-02-26T20:50:30.052Z,17.33
2019-02-26T20:52:58.606Z,16.50
2019-02-26T20:55:27.515Z,17.13
2019-02-26T20:57:56.106Z,18.93
2019-02-26T21:00:25.855Z,17.73
2019-02-26T21:02:54.600Z,17.30
2019-02-26T21:05:24.969Z,17.17
2019-02-26T21:07:57.872Z,17.20
2019-02-26T21:10:23.479Z,15.07
2019-02-26T21:12:52.004Z,15.57
2019-02-26T21:15:20.484Z,15.37
2019-02-26T21:17:48.961Z,16.07
2019-02-26T21:20:17.448Z,16.10
2019-02-26T21:22:45.937Z,14.87
2019-02-26T21:25:14.556Z,15.43
2019-02-26T21:27:43.031Z,16.60
2019-02-26T21:30:12.618Z,17.00
2019-02-26T21:32:41.108Z,18.60
2019-02-26T21:35:09.621Z,16.57
2019-02-26T21:37:38.110Z,18.53
2019-02-26T21:40:07.213Z,18.67
2019-02-26T21:42:35.765Z,18.40
2019-02-26T21:45:04.420Z,18.40
2019-02-26T21:47:32.909Z,17.90
2019-02-26T21:50:01.302Z,19.40
2019-02-26T21:52:29.740Z,16.90
2019-02-26T21:55:01.232Z,17.50
2019-02-26T21:57:28.323Z,20.60
2019-02-26T22:00:16.307Z,19.27
2019-02-26T22:02:44.773Z,20.53
2019-02-26T22:05:13.288Z,20.07
2019-02-26T22:07:41.740Z,19.97
2019-02-26T22:10:10.956Z,21.03
2019-02-26T22:12:39.420Z,21.83
2019-02-26T22:15:10.181Z,23.00
2019-02-26T22:17:38.145Z,23.77
2019-02-26T22:20:09.239Z,22.37
2019-02-26T22:22:37.865Z,20.70
2019-02-26T22:25:09.669Z,20.40
2019-02-26T22:27:36.708Z,20.03
2019-02-26T22:30:05.395Z,21.60
2019-02-26T22:32:34.997Z,19.60
2019-02-26T22:35:04.119Z,19.57
2019-02-26T22:37:32.649Z,19.37
2019-02-26T22:40:01.170Z,19.03
2019-02-26T22:42:29.651Z,19.17
2019-02-26T22:44:58.243Z,19.47
2019-02-26T22:47:26.657Z,19.53
2019-02-26T22:49:55.121Z,21.20
2019-02-26T22:52:24.753Z,19.90
2019-02-26T22:54:53.249Z,19.07
2019-02-26T22:57:23.829Z,20.50
2019-02-26T22:59:52.288Z,20.30
2019-02-26T23:02:21.319Z,20.13
2019-02-26T23:04:52.518Z,18.67
2019-02-26T23:07:20.132Z,20.67
2019-02-26T23:09:52.197Z,21.13
2019-02-26T23:12:18.898Z,20.20
2019-02-26T23:14:47.384Z,19.83
2019-02-26T23:17:16.117Z,20.60
2019-02-26T23:19:44.684Z,19.13
2019-02-26T23:22:13.162Z,21.17
2019-02-26T23:24:41.807Z,19.37
2019-02-26T23:27:12.863Z,18.47
2019-02-26T23:29:41.201Z,22.13
2019-02-26T23:32:09.664Z,22.53
2019-02-26T23:34:38.124Z,23.63
2019-02-26T23:37:10.002Z,25.00
2019-02-26T23:39:38.493Z,23.27
2019-02-26T23:42:07.040Z,22.30
2019-02-26T23:44:35.554Z,23.37
2019-02-26T23:47:04.398Z,22.40
2019-02-26T23:49:32.878Z,23.20
2019-02-26T23:52:01.404Z,22.80
2019-02-26T23:54:29.967Z,21.93
2019-02-26T23:56:58.459Z,20.90
2019-02-26T23:59:26.969Z,23.03
